sensor_id;sensor_type;location;lat;lon;timestamp;pressure;altitude;pressure_sealevel;temperature
19666;BMP180;9980;51.020;7.772;2023-06-05T00:02:09;98009.00;;;16.70
19666;BMP180;9980;51.020;7.772;2023-06-05T00:04:36;98006.00;;;16.60
19666;BMP180;9980;51.020;7.772;2023-06-05T00:07:03;98010.00;;;16.60
19666;BMP180;9980;51.020;7.772;2023-06-05T00:09:30;98010.00;;;16.50
19666;BMP180;9980;51.020;7.772;2023-06-05T00:11:57;98010.00;;;16.40
19666;BMP180;9980;51.020;7.772;2023-06-05T00:14:24;98002.00;;;16.40
19666;BMP180;9980;51.020;7.772;2023-06-05T00:16:51;98006.00;;;16.30
19666;BMP180;9980;51.020;7.772;2023-06-05T00:19:18;98003.00;;;16.20
19666;BMP180;9980;51.020;7.772;2023-06-05T00:21:45;98023.00;;;16.20
19666;BMP180;9980;51.020;7.772;2023-06-05T00:24:12;98016.00;;;16.10
19666;BMP180;9980;51.020;7.772;2023-06-05T00:26:39;98010.00;;;16.10
19666;BMP180;9980;51.020;7.772;2023-06-05T00:29:06;98012.00;;;16.00
19666;BMP180;9980;51.020;7.772;2023-06-05T00:31:34;98018.00;;;16.00
19666;BMP180;9980;51.020;7.772;2023-06-05T00:34:01;98005.00;;;15.90
19666;BMP180;9980;51.020;7.772;2023-06-05T00:36:28;98005.00;;;15.90
19666;BMP180;9980;51.020;7.772;2023-06-05T00:38:56;97999.00;;;15.80
19666;BMP180;9980;51.020;7.772;2023-06-05T00:41:23;98010.00;;;15.80
19666;BMP180;9980;51.020;7.772;2023-06-05T00:43:50;98009.00;;;15.70
19666;BMP180;9980;51.020;7.772;2023-06-05T00:46:17;98002.00;;;15.70
19666;BMP180;9980;51.020;7.772;2023-06-05T00:48:45;97998.00;;;15.60
19666;BMP180;9980;51.020;7.772;2023-06-05T00:51:16;98016.00;;;15.60
19666;BMP180;9980;51.020;7.772;2023-06-05T00:53:47;98005.00;;;15.50
19666;BMP180;9980;51.020;7.772;2023-06-05T00:56:14;98013.00;;;15.50
19666;BMP180;9980;51.020;7.772;2023-06-05T00:58:41;98016.00;;;15.40
19666;BMP180;9980;51.020;7.772;2023-06-05T01:01:11;98015.00;;;15.40
19666;BMP180;9980;51.020;7.772;2023-06-05T01:03:38;98006.00;;;15.30
19666;BMP180;9980;51.020;7.772;2023-06-05T01:06:06;98008.00;;;15.30
19666;BMP180;9980;51.020;7.772;2023-06-05T01:08:36;98010.00;;;15.20
19666;BMP180;9980;51.020;7.772;2023-06-05T01:11:24;98008.00;;;15.20
19666;BMP180;9980;51.020;7.772;2023-06-05T01:14:16;97993.00;;;15.10
19666;BMP180;9980;51.020;7.772;2023-06-05T01:16:49;98005.00;;;15.10
19666;BMP180;9980;51.020;7.772;2023-06-05T01:19:21;98006.00;;;15.00
19666;BMP180;9980;51.020;7.772;2023-06-05T01:21:51;98003.00;;;15.00
19666;BMP180;9980;51.020;7.772;2023-06-05T01:24:19;98015.00;;;14.90
19666;BMP180;9980;51.020;7.772;2023-06-05T01:30:02;97996.00;;;14.80
19666;BMP180;9980;51.020;7.772;2023-06-05T01:32:47;98006.00;;;14.70
19666;BMP180;9980;51.020;7.772;2023-06-05T01:35:23;97998.00;;;14.70
19666;BMP180;9980;51.020;7.772;2023-06-05T01:37:59;97995.00;;;14.70
19666;BMP180;9980;51.020;7.772;2023-06-05T01:40:27;97985.00;;;14.60
19666;BMP180;9980;51.020;7.772;2023-06-05T01:42:56;97998.00;;;14.60
19666;BMP180;9980;51.020;7.772;2023-06-05T01:45:23;97996.00;;;14.50
19666;BMP180;9980;51.020;7.772;2023-06-05T01:47:51;97987.00;;;14.50
19666;BMP180;9980;51.020;7.772;2023-06-05T01:50:18;97980.00;;;14.50
19666;BMP180;9980;51.020;7.772;2023-06-05T01:52:46;97988.00;;;14.40
19666;BMP180;9980;51.020;7.772;2023-06-05T01:55:18;97984.00;;;14.40
19666;BMP180;9980;51.020;7.772;2023-06-05T01:57:46;97987.00;;;14.30
19666;BMP180;9980;51.020;7.772;2023-06-05T02:00:13;97985.00;;;14.30
19666;BMP180;9980;51.020;7.772;2023-06-05T02:02:46;97979.00;;;14.20
19666;BMP180;9980;51.020;7.772;2023-06-05T02:05:16;97972.00;;;14.10
19666;BMP180;9980;51.020;7.772;2023-06-05T02:07:49;97975.00;;;14.10
19666;BMP180;9980;51.020;7.772;2023-06-05T02:10:20;97985.00;;;14.10
19666;BMP180;9980;51.020;7.772;2023-06-05T02:12:47;97967.00;;;14.00
19666;BMP180;9980;51.020;7.772;2023-06-05T02:15:14;97964.00;;;14.00
19666;BMP180;9980;51.020;7.772;2023-06-05T02:17:43;97964.00;;;13.90
19666;BMP180;9980;51.020;7.772;2023-06-05T02:20:25;97960.00;;;13.90
19666;BMP180;9980;51.020;7.772;2023-06-05T02:22:52;97973.00;;;13.90
19666;BMP180;9980;51.020;7.772;2023-06-05T02:25:22;97974.00;;;13.80
19666;BMP180;9980;51.020;7.772;2023-06-05T02:27:54;97974.00;;;13.80
19666;BMP180;9980;51.020;7.772;2023-06-05T02:30:21;97964.00;;;13.70
19666;BMP180;9980;51.020;7.772;2023-06-05T02:32:51;97978.00;;;13.70
19666;BMP180;9980;51.020;7.772;2023-06-05T02:35:24;97965.00;;;13.70
19666;BMP180;9980;51.020;7.772;2023-06-05T02:37:51;97978.00;;;13.60
19666;BMP180;9980;51.020;7.772;2023-06-05T02:40:19;97976.00;;;13.60
19666;BMP180;9980;51.020;7.772;2023-06-05T02:42:46;97972.00;;;13.60
19666;BMP180;9980;51.020;7.772;2023-06-05T02:45:13;97965.00;;;13.50
19666;BMP180;9980;51.020;7.772;2023-06-05T02:47:41;97967.00;;;13.50
19666;BMP180;9980;51.020;7.772;2023-06-05T02:50:09;97963.00;;;13.40
19666;BMP180;9980;51.020;7.772;2023-06-05T02:52:40;97971.00;;;13.40
19666;BMP180;9980;51.020;7.772;2023-06-05T02:55:13;97959.00;;;13.40
19666;BMP180;9980;51.020;7.772;2023-06-05T02:57:41;97957.00;;;13.30
19666;BMP180;9980;51.020;7.772;2023-06-05T03:00:13;97955.00;;;13.30
19666;BMP180;9980;51.020;7.772;2023-06-05T03:02:47;97962.00;;;13.20
19666;BMP180;9980;51.020;7.772;2023-06-05T03:05:22;97972.00;;;13.20
19666;BMP180;9980;51.020;7.772;2023-06-05T03:07:53;97962.00;;;13.10
19666;BMP180;9980;51.020;7.772;2023-06-05T03:10:22;97959.00;;;13.10
19666;BMP180;9980;51.020;7.772;2023-06-05T03:12:50;97946.00;;;13.10
19666;BMP180;9980;51.020;7.772;2023-06-05T03:15:17;97952.00;;;13.00
19666;BMP180;9980;51.020;7.772;2023-06-05T03:17:46;97943.00;;;13.00
19666;BMP180;9980;51.020;7.772;2023-06-05T03:20:18;97955.00;;;13.00
19666;BMP180;9980;51.020;7.772;2023-06-05T03:22:45;97941.00;;;12.90
19666;BMP180;9980;51.020;7.772;2023-06-05T03:25:12;97939.00;;;12.90
19666;BMP180;9980;51.020;7.772;2023-06-05T03:27:41;97940.00;;;12.90
19666;BMP180;9980;51.020;7.772;2023-06-05T03:30:10;97954.00;;;12.80
19666;BMP180;9980;51.020;7.772;2023-06-05T03:32:43;97937.00;;;12.80
19666;BMP180;9980;51.020;7.772;2023-06-05T03:35:11;97939.00;;;12.80
19666;BMP180;9980;51.020;7.772;2023-06-05T03:37:39;97947.00;;;12.70
19666;BMP180;9980;51.020;7.772;2023-06-05T03:40:07;97942.00;;;12.70
19666;BMP180;9980;51.020;7.772;2023-06-05T03:42:36;97940.00;;;12.70
19666;BMP180;9980;51.020;7.772;2023-06-05T03:45:04;97944.00;;;12.60
19666;BMP180;9980;51.020;7.772;2023-06-05T03:47:31;97939.00;;;12.60
19666;BMP180;9980;51.020;7.772;2023-06-05T03:50:01;97942.00;;;12.60
19666;BMP180;9980;51.020;7.772;2023-06-05T03:52:34;97939.00;;;12.60
19666;BMP180;9980;51.020;7.772;2023-06-05T03:55:05;97942.00;;;12.60
19666;BMP180;9980;51.020;7.772;2023-06-05T03:57:34;97935.00;;;12.50
19666;BMP180;9980;51.020;7.772;2023-06-05T04:00:02;97946.00;;;12.50
19666;BMP180;9980;51.020;7.772;2023-06-05T04:02:38;97940.00;;;12.50
19666;BMP180;9980;51.020;7.772;2023-06-05T04:05:08;97947.00;;;12.50
19666;BMP180;9980;51.020;7.772;2023-06-05T04:07:39;97951.00;;;12.50
19666;BMP180;9980;51.020;7.772;2023-06-05T04:10:07;97941.00;;;12.50
19666;BMP180;9980;51.020;7.772;2023-06-05T04:12:34;97949.00;;;12.50
19666;BMP180;9980;51.020;7.772;2023-06-05T04:15:02;97937.00;;;12.40
19666;BMP180;9980;51.020;7.772;2023-06-05T04:17:29;97944.00;;;12.40
19666;BMP180;9980;51.020;7.772;2023-06-05T04:19:56;97951.00;;;12.40
19666;BMP180;9980;51.020;7.772;2023-06-05T04:22:25;97954.00;;;12.40
19666;BMP180;9980;51.020;7.772;2023-06-05T04:24:52;97961.00;;;12.40
19666;BMP180;9980;51.020;7.772;2023-06-05T04:27:20;97954.00;;;12.40
19666;BMP180;9980;51.020;7.772;2023-06-05T04:29:47;97953.00;;;12.50
19666;BMP180;9980;51.020;7.772;2023-06-05T04:32:17;97943.00;;;12.50
19666;BMP180;9980;51.020;7.772;2023-06-05T04:34:44;97949.00;;;12.50
19666;BMP180;9980;51.020;7.772;2023-06-05T04:37:11;97936.00;;;12.50
19666;BMP180;9980;51.020;7.772;2023-06-05T04:39:38;97957.00;;;12.60
19666;BMP180;9980;51.020;7.772;2023-06-05T04:42:05;97953.00;;;12.80
19666;BMP180;9980;51.020;7.772;2023-06-05T04:44:39;97955.00;;;12.90
19666;BMP180;9980;51.020;7.772;2023-06-05T04:47:07;97947.00;;;13.10
19666;BMP180;9980;51.020;7.772;2023-06-05T04:49:35;97968.00;;;13.30
19666;BMP180;9980;51.020;7.772;2023-06-05T04:52:02;97955.00;;;13.40
19666;BMP180;9980;51.020;7.772;2023-06-05T04:54:29;97944.00;;;13.50
19666;BMP180;9980;51.020;7.772;2023-06-05T04:56:57;97953.00;;;13.70
19666;BMP180;9980;51.020;7.772;2023-06-05T04:59:25;97962.00;;;13.80
19666;BMP180;9980;51.020;7.772;2023-06-05T05:01:52;97953.00;;;13.90
19666;BMP180;9980;51.020;7.772;2023-06-05T05:04:22;97956.00;;;14.00
19666;BMP180;9980;51.020;7.772;2023-06-05T05:06:50;97955.00;;;14.10
19666;BMP180;9980;51.020;7.772;2023-06-05T05:09:18;97954.00;;;14.20
19666;BMP180;9980;51.020;7.772;2023-06-05T05:11:46;97956.00;;;14.30
19666;BMP180;9980;51.020;7.772;2023-06-05T05:14:13;97962.00;;;14.40
19666;BMP180;9980;51.020;7.772;2023-06-05T05:16:40;97954.00;;;14.50
19666;BMP180;9980;51.020;7.772;2023-06-05T05:19:09;97959.00;;;14.60
19666;BMP180;9980;51.020;7.772;2023-06-05T05:21:36;97952.00;;;14.70
19666;BMP180;9980;51.020;7.772;2023-06-05T05:24:04;97946.00;;;14.80
19666;BMP180;9980;51.020;7.772;2023-06-05T05:26:33;97957.00;;;14.90
19666;BMP180;9980;51.020;7.772;2023-06-05T05:29:00;97947.00;;;15.00
19666;BMP180;9980;51.020;7.772;2023-06-05T05:31:27;97947.00;;;15.10
19666;BMP180;9980;51.020;7.772;2023-06-05T05:33:57;97929.00;;;15.20
19666;BMP180;9980;51.020;7.772;2023-06-05T05:36:25;97937.00;;;15.30
19666;BMP180;9980;51.020;7.772;2023-06-05T05:38:56;97945.00;;;15.50
19666;BMP180;9980;51.020;7.772;2023-06-05T05:41:23;97939.00;;;15.60
19666;BMP180;9980;51.020;7.772;2023-06-05T05:43:50;97931.00;;;15.70
19666;BMP180;9980;51.020;7.772;2023-06-05T05:46:17;97925.00;;;15.80
19666;BMP180;9980;51.020;7.772;2023-06-05T05:48:44;97931.00;;;15.90
19666;BMP180;9980;51.020;7.772;2023-06-05T05:51:11;97947.00;;;16.00
19666;BMP180;9980;51.020;7.772;2023-06-05T05:53:38;97934.00;;;16.10
19666;BMP180;9980;51.020;7.772;2023-06-05T05:56:05;97932.00;;;16.20
19666;BMP180;9980;51.020;7.772;2023-06-05T05:58:32;97950.00;;;16.40
19666;BMP180;9980;51.020;7.772;2023-06-05T06:00:59;97948.00;;;16.50
19666;BMP180;9980;51.020;7.772;2023-06-05T06:03:27;97941.00;;;16.60
19666;BMP180;9980;51.020;7.772;2023-06-05T06:05:57;97938.00;;;16.80
19666;BMP180;9980;51.020;7.772;2023-06-05T06:08:24;97949.00;;;16.90
19666;BMP180;9980;51.020;7.772;2023-06-05T06:10:51;97915.00;;;17.00
19666;BMP180;9980;51.020;7.772;2023-06-05T06:13:18;97949.00;;;17.10
19666;BMP180;9980;51.020;7.772;2023-06-05T06:15:45;97950.00;;;17.30
19666;BMP180;9980;51.020;7.772;2023-06-05T06:18:12;97954.00;;;17.40
19666;BMP180;9980;51.020;7.772;2023-06-05T06:20:39;97950.00;;;17.50
19666;BMP180;9980;51.020;7.772;2023-06-05T06:23:07;97947.00;;;17.70
19666;BMP180;9980;51.020;7.772;2023-06-05T06:25:34;97939.00;;;17.80
19666;BMP180;9980;51.020;7.772;2023-06-05T06:28:01;97955.00;;;18.00
19666;BMP180;9980;51.020;7.772;2023-06-05T06:30:28;97958.00;;;18.10
19666;BMP180;9980;51.020;7.772;2023-06-05T06:32:56;97954.00;;;18.20
19666;BMP180;9980;51.020;7.772;2023-06-05T06:35:27;97963.00;;;18.40
19666;BMP180;9980;51.020;7.772;2023-06-05T06:37:55;97949.00;;;18.50
19666;BMP180;9980;51.020;7.772;2023-06-05T06:40:23;97949.00;;;18.60
19666;BMP180;9980;51.020;7.772;2023-06-05T06:42:50;97952.00;;;18.80
19666;BMP180;9980;51.020;7.772;2023-06-05T06:45:34;97951.00;;;18.90
19666;BMP180;9980;51.020;7.772;2023-06-05T06:48:01;97951.00;;;19.00
19666;BMP180;9980;51.020;7.772;2023-06-05T06:50:31;97958.00;;;19.20
19666;BMP180;9980;51.020;7.772;2023-06-05T06:52:58;97950.00;;;19.30
19666;BMP180;9980;51.020;7.772;2023-06-05T06:55:25;97970.00;;;19.50
19666;BMP180;9980;51.020;7.772;2023-06-05T06:57:52;97961.00;;;19.60
19666;BMP180;9980;51.020;7.772;2023-06-05T07:00:19;97956.00;;;19.80
19666;BMP180;9980;51.020;7.772;2023-06-05T07:02:47;97958.00;;;19.90
19666;BMP180;9980;51.020;7.772;2023-06-05T07:05:15;97954.00;;;20.00
19666;BMP180;9980;51.020;7.772;2023-06-05T07:07:42;97957.00;;;20.20
19666;BMP180;9980;51.020;7.772;2023-06-05T07:10:09;97949.00;;;20.30
19666;BMP180;9980;51.020;7.772;2023-06-05T07:12:36;97950.00;;;20.50
19666;BMP180;9980;51.020;7.772;2023-06-05T07:15:04;97939.00;;;20.60
19666;BMP180;9980;51.020;7.772;2023-06-05T07:17:31;97945.00;;;20.80
19666;BMP180;9980;51.020;7.772;2023-06-05T07:19:58;97944.00;;;20.90
19666;BMP180;9980;51.020;7.772;2023-06-05T07:22:26;97935.00;;;21.00
19666;BMP180;9980;51.020;7.772;2023-06-05T07:24:57;97945.00;;;21.20
19666;BMP180;9980;51.020;7.772;2023-06-05T07:27:24;97945.00;;;21.30
19666;BMP180;9980;51.020;7.772;2023-06-05T07:29:51;97949.00;;;21.40
19666;BMP180;9980;51.020;7.772;2023-06-05T07:32:20;97932.00;;;21.50
19666;BMP180;9980;51.020;7.772;2023-06-05T07:34:47;97936.00;;;21.70
19666;BMP180;9980;51.020;7.772;2023-06-05T07:37:14;97941.00;;;21.80
19666;BMP180;9980;51.020;7.772;2023-06-05T07:39:41;97946.00;;;22.00
19666;BMP180;9980;51.020;7.772;2023-06-05T07:42:08;97929.00;;;22.10
19666;BMP180;9980;51.020;7.772;2023-06-05T07:44:35;97930.00;;;22.30
19666;BMP180;9980;51.020;7.772;2023-06-05T07:47:02;97936.00;;;22.40
19666;BMP180;9980;51.020;7.772;2023-06-05T07:49:31;97936.00;;;22.50
19666;BMP180;9980;51.020;7.772;2023-06-05T07:52:00;97936.00;;;22.70
19666;BMP180;9980;51.020;7.772;2023-06-05T07:54:27;97931.00;;;22.80
19666;BMP180;9980;51.020;7.772;2023-06-05T07:56:54;97925.00;;;22.90
19666;BMP180;9980;51.020;7.772;2023-06-05T07:59:24;97934.00;;;23.10
19666;BMP180;9980;51.020;7.772;2023-06-05T08:01:54;97939.00;;;23.20
19666;BMP180;9980;51.020;7.772;2023-06-05T08:04:23;97926.00;;;23.30
19666;BMP180;9980;51.020;7.772;2023-06-05T08:06:52;97933.00;;;23.40
19666;BMP180;9980;51.020;7.772;2023-06-05T08:09:19;97930.00;;;23.60
19666;BMP180;9980;51.020;7.772;2023-06-05T08:11:46;97932.00;;;23.70
19666;BMP180;9980;51.020;7.772;2023-06-05T08:14:13;97926.00;;;23.80
19666;BMP180;9980;51.020;7.772;2023-06-05T08:16:40;97932.00;;;24.00
19666;BMP180;9980;51.020;7.772;2023-06-05T08:19:07;97927.00;;;24.10
19666;BMP180;9980;51.020;7.772;2023-06-05T08:21:34;97925.00;;;24.20
19666;BMP180;9980;51.020;7.772;2023-06-05T08:24:01;97926.00;;;24.30
19666;BMP180;9980;51.020;7.772;2023-06-05T08:26:29;97915.00;;;24.40
19666;BMP180;9980;51.020;7.772;2023-06-05T08:28:55;97910.00;;;24.50
19666;BMP180;9980;51.020;7.772;2023-06-05T08:31:22;97912.00;;;24.70
19666;BMP180;9980;51.020;7.772;2023-06-05T08:33:50;97906.00;;;24.80
19666;BMP180;9980;51.020;7.772;2023-06-05T08:36:18;97906.00;;;24.90
19666;BMP180;9980;51.020;7.772;2023-06-05T08:38:44;97907.00;;;25.10
19666;BMP180;9980;51.020;7.772;2023-06-05T08:41:14;97917.00;;;25.20
19666;BMP180;9980;51.020;7.772;2023-06-05T08:43:43;97906.00;;;25.40
19666;BMP180;9980;51.020;7.772;2023-06-05T08:46:14;97908.00;;;25.50
19666;BMP180;9980;51.020;7.772;2023-06-05T08:48:47;97914.00;;;25.60
19666;BMP180;9980;51.020;7.772;2023-06-05T08:51:16;97902.00;;;25.70
19666;BMP180;9980;51.020;7.772;2023-06-05T08:54:04;97909.00;;;25.70
19666;BMP180;9980;51.020;7.772;2023-06-05T08:56:34;97912.00;;;25.90
19666;BMP180;9980;51.020;7.772;2023-06-05T08:59:05;97908.00;;;26.00
19666;BMP180;9980;51.020;7.772;2023-06-05T09:01:32;97908.00;;;26.10
19666;BMP180;9980;51.020;7.772;2023-06-05T09:03:59;97901.00;;;26.10
19666;BMP180;9980;51.020;7.772;2023-06-05T09:06:26;97904.00;;;26.20
19666;BMP180;9980;51.020;7.772;2023-06-05T09:08:55;97901.00;;;26.30
19666;BMP180;9980;51.020;7.772;2023-06-05T09:11:30;97924.00;;;26.40
19666;BMP180;9980;51.020;7.772;2023-06-05T09:14:00;97912.00;;;26.50
19666;BMP180;9980;51.020;7.772;2023-06-05T09:16:41;97918.00;;;26.60
19666;BMP180;9980;51.020;7.772;2023-06-05T09:19:12;97903.00;;;26.70
19666;BMP180;9980;51.020;7.772;2023-06-05T09:21:40;97897.00;;;26.80
19666;BMP180;9980;51.020;7.772;2023-06-05T09:24:18;97901.00;;;26.90
19666;BMP180;9980;51.020;7.772;2023-06-05T09:29:36;97901.00;;;27.10
19666;BMP180;9980;51.020;7.772;2023-06-05T09:34:41;97893.00;;;27.30
19666;BMP180;9980;51.020;7.772;2023-06-05T09:37:10;97894.00;;;27.30
19666;BMP180;9980;51.020;7.772;2023-06-05T09:39:41;97883.00;;;27.40
19666;BMP180;9980;51.020;7.772;2023-06-05T09:42:12;97890.00;;;27.50
19666;BMP180;9980;51.020;7.772;2023-06-05T09:44:39;97894.00;;;27.60
19666;BMP180;9980;51.020;7.772;2023-06-05T09:47:09;97888.00;;;27.70
19666;BMP180;9980;51.020;7.772;2023-06-05T09:52:09;97885.00;;;27.80
19666;BMP180;9980;51.020;7.772;2023-06-05T09:54:42;97891.00;;;27.90
19666;BMP180;9980;51.020;7.772;2023-06-05T09:57:12;97883.00;;;28.10
19666;BMP180;9980;51.020;7.772;2023-06-05T09:59:54;97881.00;;;28.10
19666;BMP180;9980;51.020;7.772;2023-06-05T10:02:33;97879.00;;;28.30
19666;BMP180;9980;51.020;7.772;2023-06-05T10:05:04;97885.00;;;28.40
19666;BMP180;9980;51.020;7.772;2023-06-05T10:07:31;97890.00;;;28.50
19666;BMP180;9980;51.020;7.772;2023-06-05T10:09:59;97882.00;;;28.50
19666;BMP180;9980;51.020;7.772;2023-06-05T10:12:27;97885.00;;;28.60
19666;BMP180;9980;51.020;7.772;2023-06-05T10:14:57;97872.00;;;28.60
19666;BMP180;9980;51.020;7.772;2023-06-05T10:17:25;97885.00;;;28.70
19666;BMP180;9980;51.020;7.772;2023-06-05T10:19:54;97876.00;;;28.80
19666;BMP180;9980;51.020;7.772;2023-06-05T10:22:22;97884.00;;;28.80
19666;BMP180;9980;51.020;7.772;2023-06-05T10:25:03;97889.00;;;28.90
19666;BMP180;9980;51.020;7.772;2023-06-05T10:28:01;97890.00;;;28.90
19666;BMP180;9980;51.020;7.772;2023-06-05T10:39:33;97874.00;;;29.20
19666;BMP180;9980;51.020;7.772;2023-06-05T10:42:01;97868.00;;;29.30
19666;BMP180;9980;51.020;7.772;2023-06-05T10:44:42;97865.00;;;29.30
19666;BMP180;9980;51.020;7.772;2023-06-05T10:52:48;97866.00;;;29.60
19666;BMP180;9980;51.020;7.772;2023-06-05T10:55:16;97878.00;;;29.60
19666;BMP180;9980;51.020;7.772;2023-06-05T11:00:29;97872.00;;;29.80
19666;BMP180;9980;51.020;7.772;2023-06-05T11:02:58;97869.00;;;29.90
19666;BMP180;9980;51.020;7.772;2023-06-05T11:05:28;97859.00;;;29.90
19666;BMP180;9980;51.020;7.772;2023-06-05T11:08:16;97867.00;;;29.90
19666;BMP180;9980;51.020;7.772;2023-06-05T11:11:06;97852.00;;;29.90
19666;BMP180;9980;51.020;7.772;2023-06-05T11:13:56;97864.00;;;29.90
19666;BMP180;9980;51.020;7.772;2023-06-05T11:16:41;97852.00;;;30.00
19666;BMP180;9980;51.020;7.772;2023-06-05T11:22:08;97864.00;;;30.00
19666;BMP180;9980;51.020;7.772;2023-06-05T11:24:37;97860.00;;;30.10
19666;BMP180;9980;51.020;7.772;2023-06-05T11:27:05;97859.00;;;30.20
19666;BMP180;9980;51.020;7.772;2023-06-05T11:29:33;97849.00;;;30.20
19666;BMP180;9980;51.020;7.772;2023-06-05T11:32:10;97855.00;;;30.20
19666;BMP180;9980;51.020;7.772;2023-06-05T11:34:38;97861.00;;;30.20
19666;BMP180;9980;51.020;7.772;2023-06-05T11:37:24;97859.00;;;30.20
19666;BMP180;9980;51.020;7.772;2023-06-05T11:39:52;97844.00;;;30.30
19666;BMP180;9980;51.020;7.772;2023-06-05T11:42:22;97842.00;;;30.30
19666;BMP180;9980;51.020;7.772;2023-06-05T11:44:52;97844.00;;;30.40
19666;BMP180;9980;51.020;7.772;2023-06-05T11:47:24;97840.00;;;30.50
19666;BMP180;9980;51.020;7.772;2023-06-05T11:49:51;97839.00;;;30.60
19666;BMP180;9980;51.020;7.772;2023-06-05T11:52:20;97838.00;;;30.70
19666;BMP180;9980;51.020;7.772;2023-06-05T11:54:49;97824.00;;;30.70
19666;BMP180;9980;51.020;7.772;2023-06-05T11:57:45;97839.00;;;30.80
19666;BMP180;9980;51.020;7.772;2023-06-05T12:00:23;97827.00;;;30.80
19666;BMP180;9980;51.020;7.772;2023-06-05T12:02:50;97824.00;;;30.90
19666;BMP180;9980;51.020;7.772;2023-06-05T12:05:18;97827.00;;;30.90
19666;BMP180;9980;51.020;7.772;2023-06-05T12:07:45;97833.00;;;31.00
19666;BMP180;9980;51.020;7.772;2023-06-05T12:10:12;97826.00;;;31.00
19666;BMP180;9980;51.020;7.772;2023-06-05T12:12:53;97832.00;;;31.00
19666;BMP180;9980;51.020;7.772;2023-06-05T12:15:21;97833.00;;;31.10
19666;BMP180;9980;51.020;7.772;2023-06-05T12:17:55;97815.00;;;31.10
19666;BMP180;9980;51.020;7.772;2023-06-05T12:20:23;97824.00;;;31.20
19666;BMP180;9980;51.020;7.772;2023-06-05T12:22:50;97817.00;;;31.30
19666;BMP180;9980;51.020;7.772;2023-06-05T12:25:22;97817.00;;;31.30
19666;BMP180;9980;51.020;7.772;2023-06-05T12:27:50;97822.00;;;31.30
19666;BMP180;9980;51.020;7.772;2023-06-05T12:30:19;97816.00;;;31.30
19666;BMP180;9980;51.020;7.772;2023-06-05T12:32:47;97815.00;;;31.40
19666;BMP180;9980;51.020;7.772;2023-06-05T12:37:50;97818.00;;;31.40
19666;BMP180;9980;51.020;7.772;2023-06-05T12:40:18;97805.00;;;31.40
19666;BMP180;9980;51.020;7.772;2023-06-05T12:43:02;97815.00;;;31.50
19666;BMP180;9980;51.020;7.772;2023-06-05T12:45:29;97802.00;;;31.50
19666;BMP180;9980;51.020;7.772;2023-06-05T12:47:57;97796.00;;;31.60
19666;BMP180;9980;51.020;7.772;2023-06-05T12:50:24;97797.00;;;31.60
19666;BMP180;9980;51.020;7.772;2023-06-05T12:52:53;97796.00;;;31.70
19666;BMP180;9980;51.020;7.772;2023-06-05T12:55:21;97802.00;;;31.70
19666;BMP180;9980;51.020;7.772;2023-06-05T12:57:48;97801.00;;;31.80
19666;BMP180;9980;51.020;7.772;2023-06-05T13:00:15;97796.00;;;31.80
19666;BMP180;9980;51.020;7.772;2023-06-05T13:02:45;97795.00;;;31.90
19666;BMP180;9980;51.020;7.772;2023-06-05T13:05:14;97794.00;;;31.90
19666;BMP180;9980;51.020;7.772;2023-06-05T13:07:41;97797.00;;;31.90
19666;BMP180;9980;51.020;7.772;2023-06-05T13:10:09;97783.00;;;32.00
19666;BMP180;9980;51.020;7.772;2023-06-05T13:12:37;97788.00;;;32.00
19666;BMP180;9980;51.020;7.772;2023-06-05T13:15:05;97792.00;;;32.00
19666;BMP180;9980;51.020;7.772;2023-06-05T13:17:33;97786.00;;;32.00
19666;BMP180;9980;51.020;7.772;2023-06-05T13:20:03;97787.00;;;32.00
19666;BMP180;9980;51.020;7.772;2023-06-05T13:22:35;97781.00;;;32.00
19666;BMP180;9980;51.020;7.772;2023-06-05T13:25:03;97774.00;;;32.00
19666;BMP180;9980;51.020;7.772;2023-06-05T13:27:30;97788.00;;;32.00
19666;BMP180;9980;51.020;7.772;2023-06-05T13:29:57;97772.00;;;32.10
19666;BMP180;9980;51.020;7.772;2023-06-05T13:32:24;97767.00;;;32.10
19666;BMP180;9980;51.020;7.772;2023-06-05T13:34:51;97756.00;;;32.10
19666;BMP180;9980;51.020;7.772;2023-06-05T13:37:20;97758.00;;;32.20
19666;BMP180;9980;51.020;7.772;2023-06-05T13:39:50;97772.00;;;32.20
19666;BMP180;9980;51.020;7.772;2023-06-05T13:42:17;97765.00;;;32.10
19666;BMP180;9980;51.020;7.772;2023-06-05T13:44:45;97770.00;;;32.10
19666;BMP180;9980;51.020;7.772;2023-06-05T13:47:12;97750.00;;;32.10
19666;BMP180;9980;51.020;7.772;2023-06-05T13:49:40;97751.00;;;32.10
19666;BMP180;9980;51.020;7.772;2023-06-05T13:52:08;97759.00;;;32.10
19666;BMP180;9980;51.020;7.772;2023-06-05T13:54:35;97768.00;;;32.00
19666;BMP180;9980;51.020;7.772;2023-06-05T13:57:02;97757.00;;;32.10
19666;BMP180;9980;51.020;7.772;2023-06-05T13:59:29;97755.00;;;32.10
19666;BMP180;9980;51.020;7.772;2023-06-05T14:01:56;97760.00;;;32.10
19666;BMP180;9980;51.020;7.772;2023-06-05T14:04:23;97746.00;;;32.10
19666;BMP180;9980;51.020;7.772;2023-06-05T14:06:50;97746.00;;;32.20
19666;BMP180;9980;51.020;7.772;2023-06-05T14:09:18;97750.00;;;32.20
19666;BMP180;9980;51.020;7.772;2023-06-05T14:11:45;97747.00;;;32.20
19666;BMP180;9980;51.020;7.772;2023-06-05T14:14:13;97749.00;;;32.20
19666;BMP180;9980;51.020;7.772;2023-06-05T14:16:40;97758.00;;;32.30
19666;BMP180;9980;51.020;7.772;2023-06-05T14:19:07;97752.00;;;32.30
19666;BMP180;9980;51.020;7.772;2023-06-05T14:21:35;97739.00;;;32.30
19666;BMP180;9980;51.020;7.772;2023-06-05T14:24:04;97744.00;;;32.40
19666;BMP180;9980;51.020;7.772;2023-06-05T14:26:32;97740.00;;;32.40
19666;BMP180;9980;51.020;7.772;2023-06-05T14:28:59;97750.00;;;32.40
19666;BMP180;9980;51.020;7.772;2023-06-05T14:31:26;97742.00;;;32.40
19666;BMP180;9980;51.020;7.772;2023-06-05T14:33:55;97741.00;;;32.40
19666;BMP180;9980;51.020;7.772;2023-06-05T14:36:22;97749.00;;;32.40
19666;BMP180;9980;51.020;7.772;2023-06-05T14:38:49;97739.00;;;32.40
19666;BMP180;9980;51.020;7.772;2023-06-05T14:41:16;97739.00;;;32.30
19666;BMP180;9980;51.020;7.772;2023-06-05T14:43:46;97739.00;;;32.20
19666;BMP180;9980;51.020;7.772;2023-06-05T14:46:13;97737.00;;;32.10
19666;BMP180;9980;51.020;7.772;2023-06-05T14:48:40;97732.00;;;32.00
19666;BMP180;9980;51.020;7.772;2023-06-05T14:51:08;97732.00;;;32.00
19666;BMP180;9980;51.020;7.772;2023-06-05T14:53:35;97727.00;;;31.90
19666;BMP180;9980;51.020;7.772;2023-06-05T14:56:02;97747.00;;;31.90
19666;BMP180;9980;51.020;7.772;2023-06-05T14:58:30;97737.00;;;31.90
19666;BMP180;9980;51.020;7.772;2023-06-05T15:00:56;97736.00;;;31.80
19666;BMP180;9980;51.020;7.772;2023-06-05T15:03:25;97729.00;;;31.80
19666;BMP180;9980;51.020;7.772;2023-06-05T15:05:52;97736.00;;;31.90
19666;BMP180;9980;51.020;7.772;2023-06-05T15:08:19;97739.00;;;31.90